Time;durP1;ratioP1;P1;durP2;ratioP2;P2;SDS_P1;SDS_P2;PMS_P1;PMS_P2;Temp;Humidity;BMP_temperature;BMP_pressure;BME280_temperature;BME280_humidity;BME280_pressure;Samples;Min_cycle;Max_cycle;Signal;HPM_P1;HPM_P2
2022/12/05 05:30:36;;;;;;;;;46.25;36.25;;;;;;;;5470030;24;46342;-66
2022/12/05 05:33:01;;;;;;;;;48.00;37.25;;;;;;;;4718026;30;45676;-65
2022/12/05 05:35:26;;;;;;;;;40.50;36.25;;;;;;;;4713834;30;45443;-64
2022/12/05 05:37:51;;;;;;;;;56.00;39.50;;;;;;;;4718850;30;46027;-65
2022/12/05 05:40:17;;;;;;;;;49.00;41.75;;;;;;;;4713593;30;45605;-65
2022/12/05 05:42:43;;;;;;;;;51.75;40.75;;;;;;;;4719092;30;45288;-65
2022/12/05 05:45:09;;;;;;;;;57.25;41.50;;;;;;;;4715160;30;45694;-64
2022/12/05 05:47:34;;;;;;;;;47.75;34.00;;;;;;;;4718001;30;46054;-64
2022/12/05 05:49:59;;;;;;;;;51.25;38.25;;;;;;;;4716857;30;45246;-65
2022/12/05 05:52:25;;;;;;;;;46.50;37.50;;;;;;;;4714678;30;45285;-65
2022/12/05 05:54:50;;;;;;;;;51.75;37.50;;;;;;;;4711092;30;45422;-65
2022/12/05 05:57:15;;;;;;;;;51.25;37.50;;;;;;;;4712365;30;46047;-65
2022/12/05 05:59:40;;;;;;;;;40.50;34.25;;;;;;;;4718232;30;45650;-65
2022/12/05 06:02:05;;;;;;;;;46.25;36.50;;;;;;;;4718046;30;45492;-65
2022/12/05 06:04:33;;;;;;;;;54.50;34.75;;;;;;;;4713462;30;45230;-65
2022/12/05 06:06:58;;;;;;;;;37.75;35.00;;;;;;;;4706652;30;46744;-65
2022/12/05 06:09:23;;;;;;;;;39.75;35.75;;;;;;;;4718152;30;45507;-65
2022/12/05 06:11:48;;;;;;;;;40.50;36.50;;;;;;;;4715732;30;45462;-65
2022/12/05 06:14:13;;;;;;;;;48.25;38.25;;;;;;;;4715033;30;45610;-65
2022/12/05 06:16:39;;;;;;;;;46.00;36.75;;;;;;;;4717854;30;45568;-65
2022/12/05 06:19:04;;;;;;;;;57.25;38.25;;;;;;;;4717426;30;45592;-65
2022/12/05 06:21:29;;;;;;;;;50.25;37.75;;;;;;;;4718681;30;45400;-65
2022/12/05 06:23:54;;;;;;;;;44.25;34.75;;;;;;;;4717278;30;45454;-65
2022/12/05 06:26:20;;;;;;;;;51.25;40.00;;;;;;;;4718182;30;46195;-65
2022/12/05 06:28:46;;;;;;;;;45.75;37.75;;;;;;;;4717387;30;45463;-65
2022/12/05 06:31:27;;;;;;;;;42.75;34.00;;;;;;;;4716453;30;45467;-65
2022/12/05 06:33:52;;;;;;;;;44.75;36.00;;;;;;;;4715280;30;45475;-66
2022/12/05 06:36:18;;;;;;;;;40.75;32.00;;;;;;;;4717145;30;46413;-65
2022/12/05 06:38:44;;;;;;;;;45.00;33.50;;;;;;;;4712424;30;45732;-65
2022/12/05 06:41:12;;;;;;;;;40.00;36.25;;;;;;;;4716073;30;45468;-65
2022/12/05 06:43:37;;;;;;;;;41.00;32.25;;;;;;;;4715585;30;45397;-65
2022/12/05 06:46:06;;;;;;;;;43.75;31.25;;;;;;;;4714480;30;45988;-64
2022/12/05 06:48:31;;;;;;;;;40.00;35.25;;;;;;;;4716331;30;45397;-65
2022/12/05 06:50:57;;;;;;;;;34.75;33.50;;;;;;;;4718011;30;45418;-68
2022/12/05 06:53:22;;;;;;;;;52.25;37.50;;;;;;;;4717814;30;45690;-69
2022/12/05 06:55:57;;;;;;;;;45.25;36.75;;;;;;;;4717119;30;47086;-69
2022/12/05 06:58:22;;;;;;;;;41.25;36.00;;;;;;;;4720864;30;45492;-69
2022/12/05 07:03:32;;;;;;;;;40.50;36.50;;;;;;;;4716707;30;45566;-70
2022/12/05 07:06:00;;;;;;;;;47.50;36.00;;;;;;;;4718248;30;45297;-69
2022/12/05 07:08:26;;;;;;;;;54.50;38.75;;;;;;;;4716563;30;45474;-70
2022/12/05 07:10:51;;;;;;;;;43.75;32.25;;;;;;;;4718915;30;45590;-69
2022/12/05 07:13:17;;;;;;;;;51.25;37.50;;;;;;;;4709383;30;45670;-70
2022/12/05 07:15:45;;;;;;;;;47.25;38.75;;;;;;;;4717229;30;46261;-70
2022/12/05 07:18:10;;;;;;;;;54.50;39.75;;;;;;;;4713637;30;45376;-70
2022/12/05 07:20:35;;;;;;;;;34.75;24.00;;;;;;;;4711722;30;45501;-70
2022/12/05 07:23:00;;;;;;;;;47.75;35.75;;;;;;;;4714946;30;45566;-69
2022/12/05 07:25:26;;;;;;;;;46.75;39.50;;;;;;;;4717865;30;45206;-69
2022/12/05 07:27:51;;;;;;;;;45.75;36.50;;;;;;;;4720182;30;45233;-69
2022/12/05 07:30:16;;;;;;;;;47.25;37.00;;;;;;;;4709267;30;45595;-69
2022/12/05 07:32:41;;;;;;;;;47.00;36.25;;;;;;;;4714923;30;45420;-69
2022/12/05 07:35:07;;;;;;;;;45.75;40.00;;;;;;;;4717596;30;46121;-65
2022/12/05 07:37:32;;;;;;;;;53.75;40.50;;;;;;;;4716593;30;45221;-68
2022/12/05 07:39:57;;;;;;;;;52.25;40.00;;;;;;;;4715552;30;45546;-65
2022/12/05 07:42:22;;;;;;;;;41.50;34.75;;;;;;;;4720190;30;45332;-65
2022/12/05 07:44:47;;;;;;;;;51.25;41.25;;;;;;;;4718371;30;46163;-65
2022/12/05 07:47:13;;;;;;;;;53.00;43.00;;;;;;;;4711788;30;45468;-66
2022/12/05 07:49:38;;;;;;;;;48.50;40.25;;;;;;;;4701221;30;45896;-65
2022/12/05 07:52:03;;;;;;;;;50.25;39.00;;;;;;;;4717628;30;45334;-65
2022/12/05 07:54:28;;;;;;;;;48.50;40.50;;;;;;;;4719331;30;46168;-65
2022/12/05 07:56:53;;;;;;;;;48.00;38.50;;;;;;;;4716916;30;45238;-65
2022/12/05 07:59:19;;;;;;;;;45.25;38.50;;;;;;;;4703165;30;45450;-65
2022/12/05 08:01:44;;;;;;;;;55.50;38.00;;;;;;;;4719761;30;45616;-65
2022/12/05 08:04:09;;;;;;;;;53.75;39.75;;;;;;;;4717518;30;45511;-67
2022/12/05 08:06:34;;;;;;;;;58.50;39.25;;;;;;;;4718304;30;45424;-68
2022/12/05 08:08:59;;;;;;;;;55.75;43.75;;;;;;;;4715333;30;45395;-68
2022/12/05 08:11:26;;;;;;;;;58.25;42.25;;;;;;;;4717162;30;45324;-67
2022/12/05 08:13:52;;;;;;;;;64.50;42.25;;;;;;;;4722163;30;45652;-68
2022/12/05 08:16:18;;;;;;;;;57.25;46.50;;;;;;;;4720747;30;45391;-68
2022/12/05 08:18:44;;;;;;;;;62.25;45.00;;;;;;;;4719625;30;45462;-68
2022/12/05 08:21:11;;;;;;;;;55.25;41.75;;;;;;;;4713836;30;45400;-67
2022/12/05 08:23:36;;;;;;;;;54.00;42.50;;;;;;;;4719662;30;46351;-68
2022/12/05 08:26:06;;;;;;;;;57.25;42.25;;;;;;;;4718782;30;45693;-68
2022/12/05 08:28:31;;;;;;;;;54.25;43.00;;;;;;;;4718376;30;45447;-68
2022/12/05 08:31:07;;;;;;;;;45.50;38.00;;;;;;;;4722555;30;45423;-67
2022/12/05 08:33:33;;;;;;;;;51.50;39.50;;;;;;;;4718022;30;45446;-68
2022/12/05 08:36:02;;;;;;;;;56.50;41.50;;;;;;;;4706470;30;45437;-68
2022/12/05 08:38:28;;;;;;;;;57.50;43.00;;;;;;;;4717789;30;45242;-68
2022/12/05 08:40:53;;;;;;;;;54.50;43.75;;;;;;;;4713841;30;45902;-68
2022/12/05 08:43:18;;;;;;;;;55.50;43.25;;;;;;;;4713960;30;45803;-68
2022/12/05 08:45:50;;;;;;;;;58.50;42.50;;;;;;;;4718750;30;45298;-68
2022/12/05 08:48:16;;;;;;;;;52.00;40.00;;;;;;;;4722104;30;46507;-67
2022/12/05 08:50:41;;;;;;;;;54.50;43.00;;;;;;;;4717747;30;45292;-68
2022/12/05 08:53:06;;;;;;;;;54.25;43.00;;;;;;;;4720601;30;46374;-68
2022/12/05 08:55:33;;;;;;;;;46.00;38.50;;;;;;;;4722319;30;45372;-68
2022/12/05 08:57:58;;;;;;;;;58.25;43.00;;;;;;;;4720003;30;45464;-68
2022/12/05 09:00:23;;;;;;;;;56.25;43.25;;;;;;;;4718536;30;45385;-67
2022/12/05 09:02:49;;;;;;;;;56.50;42.50;;;;;;;;4716915;30;45444;-68
2022/12/05 09:05:15;;;;;;;;;60.00;45.50;;;;;;;;4718946;30;45410;-67
2022/12/05 09:07:40;;;;;;;;;63.50;48.00;;;;;;;;4718368;30;45430;-67
2022/12/05 09:10:06;;;;;;;;;60.00;46.25;;;;;;;;4714466;30;45718;-68
2022/12/05 09:12:34;;;;;;;;;54.00;41.75;;;;;;;;4719023;30;45430;-67
2022/12/05 09:14:59;;;;;;;;;54.50;44.00;;;;;;;;4702907;30;45544;-67
2022/12/05 09:17:24;;;;;;;;;60.50;44.00;;;;;;;;4718917;30;45598;-67
2022/12/05 09:19:50;;;;;;;;;54.50;41.00;;;;;;;;4719304;30;45914;-67
2022/12/05 09:22:16;;;;;;;;;58.50;47.50;;;;;;;;4719308;30;46118;-67
2022/12/05 09:24:41;;;;;;;;;58.50;45.75;;;;;;;;4716231;30;45376;-67
2022/12/05 09:27:06;;;;;;;;;59.50;42.00;;;;;;;;4714735;30;45588;-68
2022/12/05 09:29:31;;;;;;;;;55.50;42.00;;;;;;;;4718807;30;45408;-67
2022/12/05 09:31:56;;;;;;;;;60.00;43.75;;;;;;;;4718845;30;46135;-67
2022/12/05 09:34:24;;;;;;;;;54.00;42.50;;;;;;;;4718493;30;45494;-68
2022/12/05 09:36:50;;;;;;;;;56.50;45.50;;;;;;;;4718502;30;45444;-67
2022/12/05 09:39:16;;;;;;;;;53.50;41.00;;;;;;;;4717673;30;45415;-67
2022/12/05 09:44:41;;;;;;;;;44.25;38.00;;;;;;;;4718707;30;45348;-67
2022/12/05 09:47:24;;;;;;;;;52.75;38.75;;;;;;;;4719060;30;45368;-68
2022/12/05 09:49:52;;;;;;;;;61.00;47.00;;;;;;;;4718240;30;45843;-67
2022/12/05 09:52:24;;;;;;;;;64.25;47.75;;;;;;;;4717589;30;45493;-67
2022/12/05 09:54:50;;;;;;;;;49.75;41.00;;;;;;;;4718819;30;45539;-67
2022/12/05 09:57:17;;;;;;;;;47.00;37.75;;;;;;;;4716453;30;45357;-67
2022/12/05 09:59:42;;;;;;;;;59.00;45.00;;;;;;;;4718839;30;45337;-68
2022/12/05 10:02:30;;;;;;;;;60.00;43.00;;;;;;;;4717626;30;45445;-67
2022/12/05 10:05:17;;;;;;;;;57.00;44.00;;;;;;;;4706917;30;45458;-67
2022/12/05 10:07:49;;;;;;;;;53.75;40.75;;;;;;;;4718659;30;45464;-67
2022/12/05 10:10:26;;;;;;;;;62.00;45.50;;;;;;;;4711617;30;45412;-67
2022/12/05 10:13:00;;;;;;;;;56.75;43.50;;;;;;;;4717869;30;47097;-67
2022/12/05 10:15:29;;;;;;;;;55.50;43.00;;;;;;;;4714499;30;45362;-67
2022/12/05 10:17:57;;;;;;;;;50.25;39.75;;;;;;;;4703153;30;45523;-67
2022/12/05 10:20:34;;;;;;;;;62.00;45.50;;;;;;;;4718441;30;45570;-68
2022/12/05 10:23:04;;;;;;;;;61.25;44.50;;;;;;;;4718308;30;46967;-67
2022/12/05 10:25:31;;;;;;;;;55.50;41.75;;;;;;;;4716026;30;45565;-67
2022/12/05 10:28:00;;;;;;;;;61.75;45.75;;;;;;;;4717931;30;45663;-66
2022/12/05 10:30:28;;;;;;;;;51.25;42.00;;;;;;;;4720585;30;45478;-70
2022/12/05 10:32:53;;;;;;;;;62.75;45.75;;;;;;;;4719643;30;45441;-68
2022/12/05 10:35:19;;;;;;;;;62.50;47.25;;;;;;;;4721295;30;45326;-68
2022/12/05 10:37:48;;;;;;;;;62.25;45.00;;;;;;;;4717153;30;45493;-68
2022/12/05 10:40:14;;;;;;;;;62.75;47.25;;;;;;;;4720279;30;45451;-67
2022/12/05 10:42:39;;;;;;;;;58.50;46.00;;;;;;;;4702179;30;47887;-67
2022/12/05 10:45:06;;;;;;;;;53.25;41.75;;;;;;;;4719466;30;45309;-68
2022/12/05 10:47:32;;;;;;;;;59.25;44.75;;;;;;;;4721077;30;45340;-68
2022/12/05 10:50:00;;;;;;;;;55.00;41.50;;;;;;;;4721315;30;45619;-68
2022/12/05 10:52:26;;;;;;;;;53.25;41.25;;;;;;;;4721266;30;46464;-67
2022/12/05 10:54:56;;;;;;;;;55.50;43.75;;;;;;;;4721522;30;45364;-68
2022/12/05 10:57:22;;;;;;;;;58.25;46.00;;;;;;;;4720262;30;45569;-67
2022/12/05 10:59:48;;;;;;;;;58.00;42.00;;;;;;;;4721652;30;45443;-67
2022/12/05 11:02:30;;;;;;;;;57.50;42.50;;;;;;;;4721114;30;46141;-68
2022/12/05 11:04:55;;;;;;;;;43.50;39.00;;;;;;;;4721483;30;45269;-68
2022/12/05 11:07:23;;;;;;;;;59.00;43.25;;;;;;;;4720702;30;45693;-68
2022/12/05 11:09:48;;;;;;;;;58.75;42.00;;;;;;;;4720441;30;45653;-68
2022/12/05 11:12:25;;;;;;;;;55.75;38.25;;;;;;;;4721092;30;46155;-68
2022/12/05 11:14:53;;;;;;;;;58.75;45.75;;;;;;;;4718073;30;45475;-68
2022/12/05 11:17:38;;;;;;;;;57.50;44.00;;;;;;;;4702898;30;45268;-68
2022/12/05 11:20:19;;;;;;;;;69.00;45.50;;;;;;;;4720866;30;46361;-67
2022/12/05 11:22:45;;;;;;;;;61.75;46.25;;;;;;;;4716794;30;45991;-67
2022/12/05 11:25:25;;;;;;;;;64.50;49.50;;;;;;;;4716706;30;45587;-68
2022/12/05 11:27:50;;;;;;;;;66.00;47.75;;;;;;;;4719344;30;45426;-68
2022/12/05 11:30:19;;;;;;;;;62.75;47.00;;;;;;;;4718680;30;45399;-67
2022/12/05 11:32:45;;;;;;;;;60.50;45.25;;;;;;;;4719068;30;46499;-68
2022/12/05 11:35:10;;;;;;;;;61.00;42.25;;;;;;;;4717800;30;45341;-68
2022/12/05 11:37:42;;;;;;;;;59.40;43.80;;;;;;;;4716234;30;45522;-69
2022/12/05 11:40:16;;;;;;;;;56.25;45.75;;;;;;;;4718607;30;45330;-69
2022/12/05 11:42:41;;;;;;;;;60.75;45.00;;;;;;;;4714493;30;46063;-69
2022/12/05 11:45:15;;;;;;;;;63.25;49.25;;;;;;;;4716901;30;45588;-69
2022/12/05 11:47:49;;;;;;;;;62.00;45.25;;;;;;;;4717987;30;45352;-68
2022/12/05 11:50:16;;;;;;;;;54.50;45.00;;;;;;;;4718221;30;45460;-80
2022/12/05 11:52:42;;;;;;;;;64.00;47.00;;;;;;;;4718963;30;45502;-80
2022/12/05 11:55:10;;;;;;;;;66.25;47.00;;;;;;;;4720060;30;45508;-80
2022/12/05 11:57:41;;;;;;;;;58.25;44.75;;;;;;;;4716638;30;45418;-80
2022/12/05 12:00:24;;;;;;;;;56.25;44.50;;;;;;;;4719287;30;45621;-79
2022/12/05 12:03:04;;;;;;;;;53.75;42.25;;;;;;;;4718762;30;45285;-79
2022/12/05 12:05:35;;;;;;;;;60.00;47.50;;;;;;;;4718634;30;45430;-79
2022/12/05 12:08:19;;;;;;;;;40.50;28.50;;;;;;;;4719077;30;45309;-80
2022/12/05 12:10:47;;;;;;;;;61.00;45.00;;;;;;;;4717541;30;45642;-78
2022/12/05 12:13:24;;;;;;;;;58.75;45.75;;;;;;;;4715932;30;46158;-79
2022/12/05 12:15:56;;;;;;;;;60.75;45.00;;;;;;;;4714186;30;45506;-79
2022/12/05 12:18:39;;;;;;;;;61.50;44.50;;;;;;;;4699742;30;45300;-78
2022/12/05 12:21:16;;;;;;;;;55.75;43.50;;;;;;;;4718272;30;45539;-77
2022/12/05 12:23:41;;;;;;;;;60.50;43.75;;;;;;;;4703884;30;47262;-78
2022/12/05 12:26:11;;;;;;;;;59.00;45.50;;;;;;;;4704609;30;45340;-78
2022/12/05 12:28:59;;;;;;;;;59.00;44.75;;;;;;;;4703946;30;45553;-78
2022/12/05 12:31:27;;;;;;;;;63.25;45.50;;;;;;;;4697953;30;46513;-78
2022/12/05 12:33:58;;;;;;;;;57.75;45.25;;;;;;;;4719425;30;45515;-78
2022/12/05 12:36:32;;;;;;;;;61.50;42.00;;;;;;;;4704222;30;45556;-78
2022/12/05 12:39:07;;;;;;;;;61.00;45.50;;;;;;;;4718634;30;44823;-78
2022/12/05 12:41:40;;;;;;;;;51.00;36.50;;;;;;;;4704043;30;45651;-79
2022/12/05 12:44:18;;;;;;;;;58.25;44.00;;;;;;;;4718935;30;46874;-79
2022/12/05 12:46:43;;;;;;;;;52.50;41.00;;;;;;;;4718684;30;46635;-79
2022/12/05 12:49:22;;;;;;;;;53.75;42.75;;;;;;;;4721114;30;45502;-79
2022/12/05 12:51:52;;;;;;;;;51.25;41.00;;;;;;;;4715641;30;45429;-78
2022/12/05 12:54:23;;;;;;;;;56.25;42.00;;;;;;;;4716874;30;46609;-79
2022/12/05 12:56:55;;;;;;;;;54.50;40.75;;;;;;;;4717851;30;45332;-70
2022/12/05 12:59:39;;;;;;;;;56.75;43.50;;;;;;;;4712732;30;45325;-70
2022/12/05 13:02:04;;;;;;;;;53.50;40.50;;;;;;;;4715988;30;45427;-70
2022/12/05 13:04:53;;;;;;;;;56.25;44.50;;;;;;;;4696488;30;47614;-70
2022/12/05 13:07:22;;;;;;;;;54.00;39.50;;;;;;;;4677862;30;45585;-71
2022/12/05 13:09:49;;;;;;;;;59.00;45.25;;;;;;;;4718191;30;45521;-70
2022/12/05 13:12:16;;;;;;;;;59.25;44.50;;;;;;;;4701870;30;45595;-70
2022/12/05 13:14:48;;;;;;;;;44.50;38.25;;;;;;;;4718718;30;46405;-70
2022/12/05 13:17:16;;;;;;;;;54.00;38.75;;;;;;;;4717031;30;45706;-70
2022/12/05 13:19:45;;;;;;;;;54.25;41.25;;;;;;;;4718673;30;45518;-70
2022/12/05 13:22:11;;;;;;;;;52.75;41.00;;;;;;;;4718312;30;45349;-70
2022/12/05 13:24:36;;;;;;;;;52.75;42.00;;;;;;;;4711901;30;46603;-70
2022/12/05 13:27:05;;;;;;;;;56.50;44.00;;;;;;;;4724240;30;45671;-70
2022/12/05 13:29:32;;;;;;;;;58.00;41.75;;;;;;;;4702746;30;45573;-70
2022/12/05 13:31:59;;;;;;;;;60.25;46.50;;;;;;;;4718754;30;45458;-70
2022/12/05 13:34:33;;;;;;;;;59.25;45.00;;;;;;;;4718928;30;46336;-70
2022/12/05 13:42:36;;;;;;;;;56.25;43.75;;;;;;;;4718648;30;45601;-70
2022/12/05 13:45:04;;;;;;;;;50.75;39.50;;;;;;;;4716110;30;45509;-70
2022/12/05 13:47:47;;;;;;;;;56.50;40.75;;;;;;;;4717920;30;45442;-71
2022/12/05 13:50:16;;;;;;;;;45.00;35.75;;;;;;;;4717403;30;45491;-71
2022/12/05 13:52:51;;;;;;;;;51.75;38.00;;;;;;;;4717394;30;45444;-70
2022/12/05 13:55:19;;;;;;;;;48.25;36.75;;;;;;;;4717268;30;45477;-71
2022/12/05 13:57:46;;;;;;;;;56.50;40.75;;;;;;;;4718658;30;45374;-70
2022/12/05 14:00:11;;;;;;;;;45.50;38.25;;;;;;;;4702739;30;45449;-71
2022/12/05 14:02:44;;;;;;;;;52.75;40.75;;;;;;;;4717026;30;45378;-71
2022/12/05 14:05:18;;;;;;;;;48.00;37.00;;;;;;;;4727990;30;47279;-71
2022/12/05 14:07:43;;;;;;;;;51.75;40.50;;;;;;;;4720063;30;45777;-70
2022/12/05 14:10:10;;;;;;;;;48.25;38.00;;;;;;;;4727867;30;46403;-71
2022/12/05 14:12:44;;;;;;;;;48.75;38.00;;;;;;;;4725052;30;45526;-70
2022/12/05 14:15:28;;;;;;;;;43.50;38.00;;;;;;;;4722279;30;46432;-70
2022/12/05 14:18:00;;;;;;;;;56.00;38.25;;;;;;;;4726527;30;45541;-70
2022/12/05 14:20:45;;;;;;;;;51.75;36.00;;;;;;;;4713158;30;45706;-70
2022/12/05 14:23:13;;;;;;;;;44.50;35.50;;;;;;;;4720340;30;45372;-70
2022/12/05 14:25:54;;;;;;;;;51.75;40.00;;;;;;;;4717562;30;45561;-70
2022/12/05 14:28:38;;;;;;;;;44.00;35.75;;;;;;;;4720785;30;45281;-70
2022/12/05 14:31:21;;;;;;;;;43.00;34.00;;;;;;;;4719749;30;45420;-71
2022/12/05 14:34:02;;;;;;;;;45.00;38.00;;;;;;;;4717114;30;45685;-70
2022/12/05 14:36:30;;;;;;;;;45.50;35.00;;;;;;;;4724520;30;46416;-70
2022/12/05 14:38:55;;;;;;;;;41.00;34.75;;;;;;;;4722498;30;45405;-70
2022/12/05 14:41:29;;;;;;;;;57.50;41.50;;;;;;;;4721222;30;45408;-70
2022/12/05 14:43:55;;;;;;;;;37.50;29.75;;;;;;;;4719197;30;45559;-69
2022/12/05 14:46:26;;;;;;;;;43.25;37.50;;;;;;;;4726030;30;46131;-69
2022/12/05 14:48:51;;;;;;;;;43.00;37.00;;;;;;;;4726747;30;45352;-71
2022/12/05 14:51:31;;;;;;;;;43.00;38.25;;;;;;;;4724864;30;45522;-71
2022/12/05 14:54:04;;;;;;;;;46.00;35.50;;;;;;;;4724126;30;45442;-70
2022/12/05 14:56:31;;;;;;;;;45.50;33.50;;;;;;;;4719289;30;48238;-70
2022/12/05 14:59:00;;;;;;;;;46.50;33.75;;;;;;;;4715920;30;45405;-70
2022/12/05 15:01:31;;;;;;;;;43.50;31.00;;;;;;;;4725569;30;45541;-70
2022/12/05 15:03:59;;;;;;;;;44.50;35.00;;;;;;;;4720254;30;45500;-70
2022/12/05 15:06:25;;;;;;;;;44.00;35.00;;;;;;;;4725754;30;45421;-70
2022/12/05 15:08:53;;;;;;;;;41.00;36.75;;;;;;;;4724523;30;45346;-70
2022/12/05 15:11:27;;;;;;;;;32.00;29.00;;;;;;;;4722803;30;45555;-70
2022/12/05 15:14:12;;;;;;;;;43.25;32.75;;;;;;;;4719448;30;46105;-70
2022/12/05 15:16:41;;;;;;;;;38.75;30.75;;;;;;;;4704024;30;45534;-70
2022/12/05 15:19:10;;;;;;;;;43.25;32.25;;;;;;;;4719146;30;45457;-70
2022/12/05 15:21:41;;;;;;;;;43.50;35.00;;;;;;;;4720664;30;45678;-70
2022/12/05 15:24:17;;;;;;;;;36.50;30.25;;;;;;;;4704038;30;45646;-70
2022/12/05 15:26:52;;;;;;;;;36.50;30.50;;;;;;;;4713572;30;45503;-70
2022/12/05 15:29:27;;;;;;;;;35.33;30.00;;;;;;;;4716098;30;45593;-70
2022/12/05 15:31:52;;;;;;;;;33.33;31.00;;;;;;;;4704745;30;45506;-70
2022/12/05 15:34:35;;;;;;;;;43.67;34.00;;;;;;;;4722852;30;46352;-70
2022/12/05 15:37:09;;;;;;;;;29.00;24.50;;;;;;;;4719911;30;46299;-70
2022/12/05 15:39:52;;;;;;;;;37.25;31.00;;;;;;;;4719662;30;45352;-71
2022/12/05 15:42:17;;;;;;;;;41.75;35.50;;;;;;;;4715685;30;45344;-70
2022/12/05 15:44:43;;;;;;;;;38.50;29.75;;;;;;;;4723624;30;45427;-70
2022/12/05 15:47:18;;;;;;;;;40.00;35.00;;;;;;;;4720175;30;46229;-70
2022/12/05 15:49:45;;;;;;;;;36.67;31.33;;;;;;;;4718210;30;45285;-70
2022/12/05 15:52:22;;;;;;;;;37.67;33.00;;;;;;;;4717367;30;45290;-70
2022/12/05 15:54:48;;;;;;;;;37.33;27.67;;;;;;;;4718537;30;45473;-70
2022/12/05 15:57:16;;;;;;;;;37.33;30.67;;;;;;;;4714504;30;46054;-71
2022/12/05 15:59:45;;;;;;;;;37.75;34.00;;;;;;;;4702076;30;45979;-71
2022/12/05 16:02:23;;;;;;;;;39.67;31.67;;;;;;;;4715780;30;45484;-71
2022/12/05 16:04:51;;;;;;;;;37.00;34.00;;;;;;;;4720593;30;45565;-70
2022/12/05 16:07:17;;;;;;;;;40.50;30.00;;;;;;;;4718631;30;45619;-70
2022/12/05 16:09:43;;;;;;;;;39.75;34.50;;;;;;;;4716609;30;45274;-71
2022/12/05 16:12:24;;;;;;;;;39.67;30.33;;;;;;;;4719973;30;45242;-71
2022/12/05 16:14:50;;;;;;;;;39.00;29.00;;;;;;;;4717814;30;45607;-71
2022/12/05 16:17:16;;;;;;;;;37.75;32.25;;;;;;;;4727136;30;46188;-71
2022/12/05 16:19:42;;;;;;;;;45.00;28.00;;;;;;;;4719985;30;45672;-70
2022/12/05 16:22:10;;;;;;;;;42.67;35.33;;;;;;;;4719842;30;45450;-70
2022/12/05 16:24:39;;;;;;;;;39.25;32.75;;;;;;;;4718222;30;45336;-70
2022/12/05 16:27:12;;;;;;;;;34.00;27.25;;;;;;;;4717127;30;45439;-70
2022/12/05 16:29:37;;;;;;;;;48.75;35.50;;;;;;;;4703941;30;45679;-70
2022/12/05 16:32:05;;;;;;;;;37.25;29.25;;;;;;;;4723062;30;45356;-70
2022/12/05 16:34:32;;;;;;;;;39.75;33.00;;;;;;;;4715243;30;45476;-70
2022/12/05 16:36:57;;;;;;;;;34.67;30.00;;;;;;;;4718262;30;46266;-70
2022/12/05 16:39:24;;;;;;;;;49.75;33.50;;;;;;;;4716719;30;45575;-70
2022/12/05 16:41:50;;;;;;;;;35.75;33.00;;;;;;;;4715427;30;45466;-70
2022/12/05 16:44:21;;;;;;;;;24.00;21.25;;;;;;;;4717434;30;45791;-70
2022/12/05 16:46:47;;;;;;;;;47.00;35.25;;;;;;;;4718788;30;46422;-70
2022/12/05 16:49:17;;;;;;;;;34.25;31.25;;;;;;;;4723105;30;45353;-70
2022/12/05 16:51:52;;;;;;;;;37.25;29.75;;;;;;;;4722788;30;45384;-69
2022/12/05 16:54:17;;;;;;;;;36.00;32.50;;;;;;;;4710477;30;45456;-70
2022/12/05 16:56:42;;;;;;;;;39.00;28.50;;;;;;;;4719051;30;46595;-70
2022/12/05 16:59:19;;;;;;;;;44.00;32.25;;;;;;;;4719468;30;45386;-70
2022/12/05 17:01:44;;;;;;;;;43.00;35.25;;;;;;;;4715242;30;45447;-70
2022/12/05 17:04:09;;;;;;;;;45.75;36.25;;;;;;;;4720483;30;45564;-70
2022/12/05 17:06:35;;;;;;;;;47.00;38.50;;;;;;;;4718204;30;46261;-70
2022/12/05 17:09:00;;;;;;;;;45.25;35.25;;;;;;;;4716158;30;45573;-70
2022/12/05 17:11:26;;;;;;;;;40.25;35.75;;;;;;;;4714770;30;45447;-72
2022/12/05 17:13:53;;;;;;;;;41.00;34.33;;;;;;;;4715289;30;45490;-71
2022/12/05 17:16:19;;;;;;;;;36.50;33.50;;;;;;;;4718607;30;47069;-71
2022/12/05 17:18:44;;;;;;;;;40.00;35.25;;;;;;;;4716094;30;45411;-71
2022/12/05 17:21:14;;;;;;;;;44.75;37.50;;;;;;;;4718546;30;45534;-68
2022/12/05 17:23:39;;;;;;;;;46.75;35.50;;;;;;;;4711923;30;45689;-67
2022/12/05 17:26:04;;;;;;;;;47.00;36.50;;;;;;;;4714871;30;45757;-68
2022/12/05 17:28:29;;;;;;;;;37.00;34.75;;;;;;;;4718195;30;45496;-68
2022/12/05 17:30:55;;;;;;;;;41.50;34.75;;;;;;;;4718669;30;45702;-66
2022/12/05 17:33:20;;;;;;;;;39.50;36.50;;;;;;;;4712026;30;45638;-68
2022/12/05 17:35:45;;;;;;;;;55.25;41.25;;;;;;;;4719037;30;45909;-68
2022/12/05 17:38:10;;;;;;;;;49.00;38.00;;;;;;;;4716653;30;45447;-67
2022/12/05 17:40:36;;;;;;;;;44.50;38.50;;;;;;;;4714251;30;45606;-67
2022/12/05 17:43:02;;;;;;;;;49.75;35.75;;;;;;;;4715732;30;45475;-66
2022/12/05 17:45:28;;;;;;;;;44.75;37.75;;;;;;;;4711387;30;45515;-67
2022/12/05 17:47:54;;;;;;;;;41.25;36.25;;;;;;;;4712867;30;45519;-68
2022/12/05 17:50:20;;;;;;;;;43.75;34.50;;;;;;;;4718121;30;45351;-66
2022/12/05 17:52:46;;;;;;;;;53.25;38.00;;;;;;;;4713464;30;45337;-67
2022/12/05 17:55:19;;;;;;;;;47.25;37.50;;;;;;;;4715777;30;45426;-67
2022/12/05 17:57:44;;;;;;;;;43.25;38.00;;;;;;;;4715461;30;45348;-67
2022/12/05 18:00:10;;;;;;;;;42.50;33.75;;;;;;;;4717831;30;45538;-67
2022/12/05 18:02:35;;;;;;;;;47.00;38.25;;;;;;;;4713365;30;45644;-68
2022/12/05 18:05:00;;;;;;;;;45.75;34.50;;;;;;;;4712014;30;45451;-67
2022/12/05 18:07:26;;;;;;;;;43.00;35.00;;;;;;;;4719043;30;45462;-67
2022/12/05 18:09:51;;;;;;;;;42.25;36.25;;;;;;;;4719023;30;45456;-67
2022/12/05 18:12:16;;;;;;;;;41.00;36.00;;;;;;;;4718766;30;45491;-67
2022/12/05 18:14:41;;;;;;;;;48.75;37.50;;;;;;;;4718877;30;46229;-67
2022/12/05 18:17:06;;;;;;;;;45.50;38.00;;;;;;;;4718785;30;45161;-67
2022/12/05 18:19:32;;;;;;;;;49.00;37.25;;;;;;;;4719583;30;45586;-67
2022/12/05 18:21:57;;;;;;;;;49.25;41.50;;;;;;;;4716123;30;45550;-67
2022/12/05 18:24:23;;;;;;;;;50.00;38.25;;;;;;;;4701754;30;45366;-67
2022/12/05 18:26:48;;;;;;;;;44.50;35.75;;;;;;;;4717266;30;45494;-67
2022/12/05 18:29:13;;;;;;;;;42.00;37.00;;;;;;;;4711576;30;45515;-68
2022/12/05 18:31:40;;;;;;;;;47.50;38.50;;;;;;;;4714644;30;45597;-66
2022/12/05 18:34:05;;;;;;;;;49.00;40.50;;;;;;;;4710793;30;46211;-67
2022/12/05 18:36:31;;;;;;;;;45.25;37.00;;;;;;;;4710464;30;45704;-67
2022/12/05 18:38:56;;;;;;;;;43.25;34.75;;;;;;;;4714466;30;45770;-67
2022/12/05 18:41:22;;;;;;;;;45.75;36.25;;;;;;;;4723418;30;45409;-68
2022/12/05 18:43:47;;;;;;;;;49.25;39.00;;;;;;;;4719909;30;46239;-67
2022/12/05 18:46:12;;;;;;;;;45.50;37.25;;;;;;;;4723311;30;45887;-67
2022/12/05 18:48:38;;;;;;;;;33.50;31.75;;;;;;;;4719796;30;45345;-67
2022/12/05 18:51:06;;;;;;;;;38.50;35.75;;;;;;;;4716284;30;45491;-67
2022/12/05 18:53:31;;;;;;;;;53.25;41.50;;;;;;;;4717328;30;46373;-67
2022/12/05 18:56:01;;;;;;;;;41.50;36.25;;;;;;;;4718378;30;45645;-66
2022/12/05 18:58:26;;;;;;;;;46.25;39.25;;;;;;;;4723436;30;45551;-67
2022/12/05 19:00:51;;;;;;;;;46.75;38.50;;;;;;;;4718626;30;45275;-67
2022/12/05 19:03:16;;;;;;;;;56.75;42.25;;;;;;;;4721479;30;45260;-66
2022/12/05 19:05:42;;;;;;;;;46.00;37.50;;;;;;;;4721506;30;45551;-67
2022/12/05 19:08:07;;;;;;;;;54.50;41.75;;;;;;;;4716593;30;45274;-67
2022/12/05 19:10:34;;;;;;;;;48.75;38.25;;;;;;;;4722500;30;45215;-67
2022/12/05 19:12:59;;;;;;;;;43.50;37.25;;;;;;;;4728687;30;45351;-68
2022/12/05 19:15:24;;;;;;;;;42.75;36.00;;;;;;;;4732133;30;45723;-66
2022/12/05 19:17:49;;;;;;;;;37.50;35.25;;;;;;;;4728355;30;45599;-67
2022/12/05 19:20:15;;;;;;;;;55.00;36.25;;;;;;;;4723475;30;45421;-67
2022/12/05 19:22:40;;;;;;;;;38.75;33.25;;;;;;;;4730824;30;46584;-66
2022/12/05 19:25:05;;;;;;;;;55.50;39.25;;;;;;;;4729513;30;45291;-68
2022/12/05 19:27:30;;;;;;;;;37.75;36.00;;;;;;;;4733785;30;45277;-67
2022/12/05 19:29:56;;;;;;;;;51.25;40.25;;;;;;;;4728391;30;45339;-66
2022/12/05 19:32:21;;;;;;;;;53.25;40.75;;;;;;;;4727055;30;46228;-66
2022/12/05 19:34:48;;;;;;;;;46.50;39.00;;;;;;;;4725999;30;45626;-66
2022/12/05 19:37:13;;;;;;;;;48.50;40.50;;;;;;;;4727484;30;45509;-67
2022/12/05 19:39:39;;;;;;;;;32.00;26.50;;;;;;;;4708303;30;45578;-67
2022/12/05 19:42:04;;;;;;;;;43.50;37.00;;;;;;;;4708627;30;45535;-67
2022/12/05 19:44:29;;;;;;;;;36.50;30.75;;;;;;;;4717735;30;45376;-67
2022/12/05 19:46:54;;;;;;;;;41.00;35.00;;;;;;;;4724766;30;45661;-66
2022/12/05 19:49:21;;;;;;;;;49.25;39.00;;;;;;;;4715610;30;45305;-67
2022/12/05 19:51:47;;;;;;;;;43.75;37.25;;;;;;;;4723321;30;47000;-68
2022/12/05 19:54:13;;;;;;;;;42.75;36.50;;;;;;;;4721351;30;45376;-68
2022/12/05 19:56:38;;;;;;;;;43.00;37.75;;;;;;;;4698990;30;45343;-67
2022/12/05 19:59:05;;;;;;;;;37.50;34.25;;;;;;;;4719175;30;45478;-68
2022/12/05 20:01:34;;;;;;;;;41.75;37.00;;;;;;;;4718170;30;46419;-67
2022/12/05 20:04:01;;;;;;;;;45.25;37.00;;;;;;;;4717048;30;45379;-67